Country
Station

 

Weather  for  Kulusuk Lufthavn  -  Greenland    Greenland

  
1 °C (34 °F)
    
 
 

Current METAR for Kulusuk Lufthavn is :

BGKK 192250Z AUTO 07005KT 9999NDV -RA OVC044/// 01/M00 Q0991

 

This is a report for Kulusuk Lufthavn - Greenland.
 
The report was made 8 hours and 26 minutes ago, at 22:50 UTC .
The wind was blowing at a speed of 2.6 meters per second (5.8 miles per hour) from east/northeast (070°).
 
The temperature was 1 °C (34 °F)
The temperature felt like -2 °C (29 °F).
 
The atmospheric pressure was 991 hPa (29.26 inHg).
Currently light rain.

 
 
 
 

Country :   A   B   C   D   E   F   G   H   I   J   K   L   M   N   O   P   Q   R   S   T   U   V   W   Y   Z

 

Site Info  |  Disclaimer  |  Credits  |  Privacy
Contact us  |  Add to favorites
© 2013-2019 METARs - All rights reserved